sensor_id;sensor_type;location;lat;lon;timestamp;pressure;altitude;pressure_sealevel;temperature;humidity
58739;BME280;44512;53.046;18.604;2023-05-24T00:05:09;101257.77;;;21.08;42.22
58739;BME280;44512;53.046;18.604;2023-05-24T00:15:34;101243.95;;;21.03;40.61
58739;BME280;44512;53.046;18.604;2023-05-24T00:26:03;101238.38;;;20.98;39.94
58739;BME280;44512;53.046;18.604;2023-05-24T00:36:31;101232.33;;;20.96;39.78
58739;BME280;44512;53.046;18.604;2023-05-24T00:46:59;101235.58;;;20.93;39.92
58739;BME280;44512;53.046;18.604;2023-05-24T00:57:27;101238.85;;;20.90;39.94
58739;BME280;44512;53.046;18.604;2023-05-24T01:18:31;101241.55;;;20.85;39.82
58739;BME280;44512;53.046;18.604;2023-05-24T01:28:53;101248.65;;;20.80;39.92
58739;BME280;44512;53.046;18.604;2023-05-24T01:39:24;101256.83;;;20.75;40.23
58739;BME280;44512;53.046;18.604;2023-05-24T01:49:51;101259.24;;;20.72;40.76
58739;BME280;44512;53.046;18.604;2023-05-24T02:00:18;101269.95;;;20.68;41.04
58739;BME280;44512;53.046;18.604;2023-05-24T02:10:46;101267.37;;;20.62;42.42
58739;BME280;44512;53.046;18.604;2023-05-24T02:21:14;101287.63;;;20.55;43.50
58739;BME280;44512;53.046;18.604;2023-05-24T02:31:42;101291.66;;;20.48;44.16
58739;BME280;44512;53.046;18.604;2023-05-24T02:42:11;101290.87;;;20.36;45.60
58739;BME280;44512;53.046;18.604;2023-05-24T02:52:39;101293.99;;;20.22;47.06
58739;BME280;44512;53.046;18.604;2023-05-24T03:03:07;101295.97;;;20.10;48.28
58739;BME280;44512;53.046;18.604;2023-05-24T03:13:36;101302.98;;;20.01;49.32
58739;BME280;44512;53.046;18.604;2023-05-24T03:24:05;101305.79;;;19.89;49.89
58739;BME280;44512;53.046;18.604;2023-05-24T03:34:33;101310.26;;;19.78;50.28
58739;BME280;44512;53.046;18.604;2023-05-24T03:45:01;101315.10;;;19.71;50.69
58739;BME280;44512;53.046;18.604;2023-05-24T03:55:29;101334.96;;;19.62;50.98
58739;BME280;44512;53.046;18.604;2023-05-24T04:05:58;101334.98;;;19.50;51.27
58739;BME280;44512;53.046;18.604;2023-05-24T04:16:27;101349.09;;;19.42;51.57
58739;BME280;44512;53.046;18.604;2023-05-24T04:26:55;101349.59;;;19.39;51.80
58739;BME280;44512;53.046;18.604;2023-05-24T04:37:23;101365.24;;;19.38;52.12
58739;BME280;44512;53.046;18.604;2023-05-24T04:47:51;101375.35;;;19.38;52.38
58739;BME280;44512;53.046;18.604;2023-05-24T04:58:20;101392.44;;;19.40;52.70
58739;BME280;44512;53.046;18.604;2023-05-24T05:08:48;101406.16;;;19.40;52.77
58739;BME280;44512;53.046;18.604;2023-05-24T05:19:16;101411.29;;;19.36;53.02
58739;BME280;44512;53.046;18.604;2023-05-24T05:29:45;101428.59;;;19.37;53.20
58739;BME280;44512;53.046;18.604;2023-05-24T05:40:13;101435.27;;;19.41;53.27
58739;BME280;44512;53.046;18.604;2023-05-24T05:50:42;101436.21;;;19.46;53.30
58739;BME280;44512;53.046;18.604;2023-05-24T06:01:10;101463.05;;;19.56;53.32
58739;BME280;44512;53.046;18.604;2023-05-24T06:11:38;101469.27;;;19.63;53.48
58739;BME280;44512;53.046;18.604;2023-05-24T06:22:07;101473.31;;;19.72;53.22
58739;BME280;44512;53.046;18.604;2023-05-24T06:32:35;101479.01;;;19.83;53.15
58739;BME280;44512;53.046;18.604;2023-05-24T06:43:04;101491.04;;;19.93;52.80
58739;BME280;44512;53.046;18.604;2023-05-24T06:53:32;101512.97;;;20.05;52.18
58739;BME280;44512;53.046;18.604;2023-05-24T07:04:00;101530.02;;;20.19;51.85
58739;BME280;44512;53.046;18.604;2023-05-24T07:14:29;101540.73;;;20.32;51.78
58739;BME280;44512;53.046;18.604;2023-05-24T07:24:57;101556.09;;;20.45;53.22
58739;BME280;44512;53.046;18.604;2023-05-24T07:35:25;101562.23;;;20.47;53.64
58739;BME280;44512;53.046;18.604;2023-05-24T07:45:54;101575.97;;;20.47;53.78
58739;BME280;44512;53.046;18.604;2023-05-24T07:56:22;101590.30;;;20.49;53.63
58739;BME280;44512;53.046;18.604;2023-05-24T08:06:50;101604.76;;;20.44;53.51
58739;BME280;44512;53.046;18.604;2023-05-24T08:17:19;101622.23;;;20.38;53.43
58739;BME280;44512;53.046;18.604;2023-05-24T08:27:47;101628.45;;;20.34;53.65
58739;BME280;44512;53.046;18.604;2023-05-24T08:38:16;101635.77;;;20.28;53.73
58739;BME280;44512;53.046;18.604;2023-05-24T08:48:45;101642.47;;;20.20;53.86
58739;BME280;44512;53.046;18.604;2023-05-24T08:59:12;101659.92;;;20.14;53.95
58739;BME280;44512;53.046;18.604;2023-05-24T09:09:42;101675.73;;;20.07;54.10
58739;BME280;44512;53.046;18.604;2023-05-24T09:20:10;101690.77;;;20.04;54.12
58739;BME280;44512;53.046;18.604;2023-05-24T09:30:37;101708.70;;;20.07;54.31
58739;BME280;44512;53.046;18.604;2023-05-24T09:41:07;101717.65;;;20.14;54.19
58739;BME280;44512;53.046;18.604;2023-05-24T09:51:37;101721.13;;;20.21;54.07
58739;BME280;44512;53.046;18.604;2023-05-24T10:02:09;101729.96;;;20.23;54.04
58739;BME280;44512;53.046;18.604;2023-05-24T10:12:33;101733.29;;;20.25;53.78
58739;BME280;44512;53.046;18.604;2023-05-24T10:23:00;101729.48;;;20.26;53.77
58739;BME280;44512;53.046;18.604;2023-05-24T10:33:29;101712.49;;;20.29;54.05
58739;BME280;44512;53.046;18.604;2023-05-24T10:43:56;101716.55;;;20.39;53.97
58739;BME280;44512;53.046;18.604;2023-05-24T10:54:24;101723.50;;;20.53;53.92
58739;BME280;44512;53.046;18.604;2023-05-24T11:04:53;101724.29;;;20.65;53.89
58739;BME280;44512;53.046;18.604;2023-05-24T11:15:23;101737.78;;;20.78;53.42
58739;BME280;44512;53.046;18.604;2023-05-24T11:25:49;101744.55;;;20.88;52.92
58739;BME280;44512;53.046;18.604;2023-05-24T11:36:18;101757.68;;;20.97;52.66
58739;BME280;44512;53.046;18.604;2023-05-24T11:46:46;101732.53;;;21.05;52.24
58739;BME280;44512;53.046;18.604;2023-05-24T11:57:15;101747.58;;;21.15;51.78
58739;BME280;44512;53.046;18.604;2023-05-24T12:07:43;101740.35;;;21.25;51.39
58739;BME280;44512;53.046;18.604;2023-05-24T12:18:18;101723.79;;;21.37;50.94
58739;BME280;44512;53.046;18.604;2023-05-24T12:28:39;101731.48;;;21.52;50.58
58739;BME280;44512;53.046;18.604;2023-05-24T12:39:17;101724.05;;;21.69;50.23
58739;BME280;44512;53.046;18.604;2023-05-24T12:49:36;101723.81;;;21.88;49.52
58739;BME280;44512;53.046;18.604;2023-05-24T13:00:06;101732.05;;;22.04;49.33
58739;BME280;44512;53.046;18.604;2023-05-24T13:10:33;101742.86;;;22.23;48.75
58739;BME280;44512;53.046;18.604;2023-05-24T13:21:02;101735.03;;;22.36;48.19
58739;BME280;44512;53.046;18.604;2023-05-24T13:31:29;101731.91;;;22.50;48.04
58739;BME280;44512;53.046;18.604;2023-05-24T13:41:58;101722.23;;;22.69;47.50
58739;BME280;44512;53.046;18.604;2023-05-24T13:52:26;101720.58;;;22.90;47.09
58739;BME280;44512;53.046;18.604;2023-05-24T14:02:55;101740.43;;;23.14;46.57
58739;BME280;44512;53.046;18.604;2023-05-24T14:13:23;101738.46;;;23.36;45.36
58739;BME280;44512;53.046;18.604;2023-05-24T14:23:51;101737.23;;;23.54;45.06
58739;BME280;44512;53.046;18.604;2023-05-24T14:34:20;101762.28;;;23.70;45.03
58739;BME280;44512;53.046;18.604;2023-05-24T14:50:05;101771.61;;;23.96;45.21
58739;BME280;44512;53.046;18.604;2023-05-24T15:00:32;101770.77;;;24.32;44.81
58739;BME280;44512;53.046;18.604;2023-05-24T15:11:00;101777.69;;;24.77;43.69
58739;BME280;44512;53.046;18.604;2023-05-24T15:21:29;101783.66;;;25.16;42.67
58739;BME280;44512;53.046;18.604;2023-05-24T15:31:57;101790.93;;;25.48;42.01
58739;BME280;44512;53.046;18.604;2023-05-24T15:42:25;101811.77;;;25.71;41.33
58739;BME280;44512;53.046;18.604;2023-05-24T15:52:54;101801.83;;;25.80;41.09
58739;BME280;44512;53.046;18.604;2023-05-24T16:03:22;101811.52;;;25.83;40.75
58739;BME280;44512;53.046;18.604;2023-05-24T16:13:50;101825.09;;;25.79;40.65
58739;BME280;44512;53.046;18.604;2023-05-24T16:24:19;101842.25;;;25.61;40.78
58739;BME280;44512;53.046;18.604;2023-05-24T16:34:47;101837.19;;;25.37;41.11
58739;BME280;44512;53.046;18.604;2023-05-24T16:45:16;101850.95;;;25.12;41.53
58739;BME280;44512;53.046;18.604;2023-05-24T16:55:44;101866.62;;;24.91;41.76
58739;BME280;44512;53.046;18.604;2023-05-24T17:06:12;101864.01;;;24.69;42.01
58739;BME280;44512;53.046;18.604;2023-05-24T17:16:40;101869.08;;;24.40;42.35
58739;BME280;44512;53.046;18.604;2023-05-24T17:27:09;101881.21;;;24.07;42.86
58739;BME280;44512;53.046;18.604;2023-05-24T17:37:37;101888.32;;;23.71;43.53
58739;BME280;44512;53.046;18.604;2023-05-24T17:48:05;101903.19;;;23.43;44.12
58739;BME280;44512;53.046;18.604;2023-05-24T17:58:34;101899.01;;;23.18;44.63
58739;BME280;44512;53.046;18.604;2023-05-24T18:09:02;101921.23;;;22.90;45.22
58739;BME280;44512;53.046;18.604;2023-05-24T18:19:30;101917.15;;;22.58;45.80
58739;BME280;44512;53.046;18.604;2023-05-24T18:29:59;101941.32;;;22.34;46.27
58739;BME280;44512;53.046;18.604;2023-05-24T18:40:27;101970.68;;;22.12;46.69
58739;BME280;44512;53.046;18.604;2023-05-24T18:50:55;101977.38;;;21.88;47.25
58739;BME280;44512;53.046;18.604;2023-05-24T19:01:24;101987.88;;;21.62;47.73
58739;BME280;44512;53.046;18.604;2023-05-24T19:11:53;102000.60;;;21.40;48.21
58739;BME280;44512;53.046;18.604;2023-05-24T19:22:20;102009.58;;;21.23;48.62
58739;BME280;44512;53.046;18.604;2023-05-24T19:32:49;102012.22;;;21.06;48.95
58739;BME280;44512;53.046;18.604;2023-05-24T19:43:17;102009.34;;;20.90;49.30
58739;BME280;44512;53.046;18.604;2023-05-24T19:53:46;102016.39;;;20.74;49.79
58739;BME280;44512;53.046;18.604;2023-05-24T20:04:14;102029.38;;;20.55;50.35
58739;BME280;44512;53.046;18.604;2023-05-24T20:14:42;102036.80;;;20.36;50.87
58739;BME280;44512;53.046;18.604;2023-05-24T20:25:11;102027.30;;;20.20;51.29
58739;BME280;44512;53.046;18.604;2023-05-24T20:35:39;102025.45;;;20.02;51.73
58739;BME280;44512;53.046;18.604;2023-05-24T20:46:07;102029.52;;;19.82;52.17
58739;BME280;44512;53.046;18.604;2023-05-24T20:56:36;102029.52;;;19.63;52.64
58739;BME280;44512;53.046;18.604;2023-05-24T21:07:04;102027.59;;;19.45;53.01
58739;BME280;44512;53.046;18.604;2023-05-24T21:17:32;102038.70;;;19.32;53.41
58739;BME280;44512;53.046;18.604;2023-05-24T21:28:01;102044.54;;;19.17;53.76
58739;BME280;44512;53.046;18.604;2023-05-24T21:38:29;102059.47;;;19.03;54.17
58739;BME280;44512;53.046;18.604;2023-05-24T21:48:58;102060.41;;;18.90;54.49
58739;BME280;44512;53.046;18.604;2023-05-24T21:59:26;102049.75;;;18.76;54.82
58739;BME280;44512;53.046;18.604;2023-05-24T22:09:54;102059.73;;;18.63;55.16
58739;BME280;44512;53.046;18.604;2023-05-24T22:20:23;102070.35;;;18.53;55.47
58739;BME280;44512;53.046;18.604;2023-05-24T22:30:51;102068.92;;;18.44;55.70
58739;BME280;44512;53.046;18.604;2023-05-24T22:41:20;102078.92;;;18.32;55.98
58739;BME280;44512;53.046;18.604;2023-05-24T22:51:48;102076.23;;;18.18;56.26
58739;BME280;44512;53.046;18.604;2023-05-24T23:02:16;102095.67;;;18.10;56.54
58739;BME280;44512;53.046;18.604;2023-05-24T23:12:44;102096.74;;;18.09;56.61
58739;BME280;44512;53.046;18.604;2023-05-24T23:23:13;102092.09;;;18.03;56.61
58739;BME280;44512;53.046;18.604;2023-05-24T23:33:41;102101.63;;;17.94;56.72
58739;BME280;44512;53.046;18.604;2023-05-24T23:44:10;102087.10;;;17.87;57.00
58739;BME280;44512;53.046;18.604;2023-05-24T23:54:38;102083.14;;;17.76;56.80
